sensor_id;sensor_type;location;lat;lon;timestamp;temperature;humidity
431;DHT22;202;48.764;9.172;2023-01-29T00:01:50;3.50;47.90
431;DHT22;202;48.764;9.172;2023-01-29T00:04:18;3.60;47.60
431;DHT22;202;48.764;9.172;2023-01-29T00:06:45;3.60;47.30
431;DHT22;202;48.764;9.172;2023-01-29T00:09:12;3.50;47.70
431;DHT22;202;48.764;9.172;2023-01-29T00:11:39;3.50;47.50
431;DHT22;202;48.764;9.172;2023-01-29T00:14:06;3.60;47.50
431;DHT22;202;48.764;9.172;2023-01-29T00:16:33;3.50;47.50
431;DHT22;202;48.764;9.172;2023-01-29T00:19:00;3.60;47.50
431;DHT22;202;48.764;9.172;2023-01-29T00:21:28;3.70;47.30
431;DHT22;202;48.764;9.172;2023-01-29T00:23:57;3.60;46.60
431;DHT22;202;48.764;9.172;2023-01-29T00:26:23;3.50;47.60
431;DHT22;202;48.764;9.172;2023-01-29T00:28:50;3.60;46.70
431;DHT22;202;48.764;9.172;2023-01-29T00:31:19;3.60;46.10
431;DHT22;202;48.764;9.172;2023-01-29T00:33:46;3.50;46.60
431;DHT22;202;48.764;9.172;2023-01-29T00:36:15;3.50;47.20
431;DHT22;202;48.764;9.172;2023-01-29T00:38:44;3.60;47.10
431;DHT22;202;48.764;9.172;2023-01-29T00:41:19;3.60;46.80
431;DHT22;202;48.764;9.172;2023-01-29T00:44:05;3.40;46.80
431;DHT22;202;48.764;9.172;2023-01-29T00:46:50;3.40;47.50
431;DHT22;202;48.764;9.172;2023-01-29T00:49:17;3.30;47.20
431;DHT22;202;48.764;9.172;2023-01-29T00:51:44;3.20;47.70
431;DHT22;202;48.764;9.172;2023-01-29T00:54:33;3.10;47.10
431;DHT22;202;48.764;9.172;2023-01-29T00:57:00;3.10;48.50
431;DHT22;202;48.764;9.172;2023-01-29T00:59:27;3.20;48.60
431;DHT22;202;48.764;9.172;2023-01-29T01:01:54;3.20;48.50
431;DHT22;202;48.764;9.172;2023-01-29T01:04:39;3.30;48.60
431;DHT22;202;48.764;9.172;2023-01-29T01:07:06;3.40;47.60
431;DHT22;202;48.764;9.172;2023-01-29T01:09:35;3.40;48.00
431;DHT22;202;48.764;9.172;2023-01-29T01:12:19;3.40;47.50
431;DHT22;202;48.764;9.172;2023-01-29T01:14:46;3.40;47.30
431;DHT22;202;48.764;9.172;2023-01-29T01:17:13;3.40;47.50
431;DHT22;202;48.764;9.172;2023-01-29T01:19:40;3.50;47.40
431;DHT22;202;48.764;9.172;2023-01-29T01:22:07;3.50;46.90
431;DHT22;202;48.764;9.172;2023-01-29T01:24:35;3.40;47.20
431;DHT22;202;48.764;9.172;2023-01-29T01:27:02;3.40;47.30
431;DHT22;202;48.764;9.172;2023-01-29T01:29:29;3.40;47.60
431;DHT22;202;48.764;9.172;2023-01-29T01:31:56;3.30;47.00
431;DHT22;202;48.764;9.172;2023-01-29T01:34:23;3.40;47.10
431;DHT22;202;48.764;9.172;2023-01-29T01:36:51;3.40;46.40
431;DHT22;202;48.764;9.172;2023-01-29T01:39:18;3.20;47.00
431;DHT22;202;48.764;9.172;2023-01-29T01:41:46;3.30;47.60
431;DHT22;202;48.764;9.172;2023-01-29T01:44:51;3.20;46.90
431;DHT22;202;48.764;9.172;2023-01-29T01:47:23;3.20;47.70
431;DHT22;202;48.764;9.172;2023-01-29T01:49:52;3.10;48.30
431;DHT22;202;48.764;9.172;2023-01-29T01:52:20;3.10;48.30
431;DHT22;202;48.764;9.172;2023-01-29T01:54:48;3.20;47.80
431;DHT22;202;48.764;9.172;2023-01-29T01:57:21;3.10;47.60
431;DHT22;202;48.764;9.172;2023-01-29T01:59:55;3.00;47.30
431;DHT22;202;48.764;9.172;2023-01-29T02:02:23;3.00;47.40
431;DHT22;202;48.764;9.172;2023-01-29T02:05:10;2.90;47.70
431;DHT22;202;48.764;9.172;2023-01-29T02:07:55;3.00;48.40
431;DHT22;202;48.764;9.172;2023-01-29T02:10:42;3.00;48.30
431;DHT22;202;48.764;9.172;2023-01-29T02:13:11;3.00;47.60
431;DHT22;202;48.764;9.172;2023-01-29T02:15:40;2.90;47.80
431;DHT22;202;48.764;9.172;2023-01-29T02:18:11;2.80;48.20
431;DHT22;202;48.764;9.172;2023-01-29T02:20:41;2.80;48.20
431;DHT22;202;48.764;9.172;2023-01-29T02:23:25;2.90;47.20
431;DHT22;202;48.764;9.172;2023-01-29T02:26:08;2.90;48.30
431;DHT22;202;48.764;9.172;2023-01-29T02:28:44;2.90;47.40
431;DHT22;202;48.764;9.172;2023-01-29T02:31:23;3.00;47.60
431;DHT22;202;48.764;9.172;2023-01-29T02:33:58;3.00;47.30
431;DHT22;202;48.764;9.172;2023-01-29T02:36:32;2.90;46.50
431;DHT22;202;48.764;9.172;2023-01-29T02:39:09;2.90;47.10
431;DHT22;202;48.764;9.172;2023-01-29T02:41:41;2.90;47.30
431;DHT22;202;48.764;9.172;2023-01-29T02:44:18;3.10;47.10
431;DHT22;202;48.764;9.172;2023-01-29T02:46:52;3.10;46.80
431;DHT22;202;48.764;9.172;2023-01-29T02:49:26;3.10;47.00
431;DHT22;202;48.764;9.172;2023-01-29T02:52:01;3.00;46.70
431;DHT22;202;48.764;9.172;2023-01-29T02:54:33;3.00;46.30
431;DHT22;202;48.764;9.172;2023-01-29T02:57:06;3.00;46.30
431;DHT22;202;48.764;9.172;2023-01-29T02:59:44;3.00;46.40
431;DHT22;202;48.764;9.172;2023-01-29T03:02:16;3.10;46.10
431;DHT22;202;48.764;9.172;2023-01-29T03:04:47;3.00;46.10
431;DHT22;202;48.764;9.172;2023-01-29T03:07:20;3.10;46.40
431;DHT22;202;48.764;9.172;2023-01-29T03:10:03;3.20;46.70
431;DHT22;202;48.764;9.172;2023-01-29T03:12:33;3.20;46.10
431;DHT22;202;48.764;9.172;2023-01-29T03:15:08;3.20;45.30
431;DHT22;202;48.764;9.172;2023-01-29T03:17:44;3.20;46.10
431;DHT22;202;48.764;9.172;2023-01-29T03:20:16;3.30;45.90
431;DHT22;202;48.764;9.172;2023-01-29T03:22:48;3.30;45.80
431;DHT22;202;48.764;9.172;2023-01-29T03:25:17;3.30;45.60
431;DHT22;202;48.764;9.172;2023-01-29T03:28:04;3.20;46.20
431;DHT22;202;48.764;9.172;2023-01-29T03:30:52;3.20;46.10
431;DHT22;202;48.764;9.172;2023-01-29T03:33:41;3.20;45.90
431;DHT22;202;48.764;9.172;2023-01-29T03:36:13;3.10;45.90
431;DHT22;202;48.764;9.172;2023-01-29T03:38:41;3.10;45.80
431;DHT22;202;48.764;9.172;2023-01-29T03:41:12;3.10;46.10
431;DHT22;202;48.764;9.172;2023-01-29T03:43:49;3.10;45.80
431;DHT22;202;48.764;9.172;2023-01-29T03:46:22;3.10;46.20
431;DHT22;202;48.764;9.172;2023-01-29T03:48:57;3.20;45.50
431;DHT22;202;48.764;9.172;2023-01-29T03:51:29;3.10;45.80
431;DHT22;202;48.764;9.172;2023-01-29T03:54:06;3.10;45.40
431;DHT22;202;48.764;9.172;2023-01-29T03:56:42;3.10;45.90
431;DHT22;202;48.764;9.172;2023-01-29T03:59:20;3.20;46.10
431;DHT22;202;48.764;9.172;2023-01-29T04:01:52;3.10;45.70
431;DHT22;202;48.764;9.172;2023-01-29T04:04:23;2.80;44.70
431;DHT22;202;48.764;9.172;2023-01-29T04:06:51;2.60;47.00
431;DHT22;202;48.764;9.172;2023-01-29T04:09:21;2.70;47.10
431;DHT22;202;48.764;9.172;2023-01-29T04:11:52;2.80;47.10
431;DHT22;202;48.764;9.172;2023-01-29T04:14:21;2.80;46.50
431;DHT22;202;48.764;9.172;2023-01-29T04:16:52;2.90;46.30
431;DHT22;202;48.764;9.172;2023-01-29T04:19:21;2.80;46.20
431;DHT22;202;48.764;9.172;2023-01-29T08:23:14;2.90;46.20
431;DHT22;202;48.764;9.172;2023-01-29T08:25:42;3.00;45.80
431;DHT22;202;48.764;9.172;2023-01-29T08:28:09;3.00;45.20
431;DHT22;202;48.764;9.172;2023-01-29T08:30:37;2.90;45.20
431;DHT22;202;48.764;9.172;2023-01-29T08:33:04;3.00;45.70
431;DHT22;202;48.764;9.172;2023-01-29T08:35:31;3.00;45.70
431;DHT22;202;48.764;9.172;2023-01-29T08:37:59;3.10;45.10
431;DHT22;202;48.764;9.172;2023-01-29T08:40:29;3.20;44.50
431;DHT22;202;48.764;9.172;2023-01-29T08:42:57;3.20;43.80
431;DHT22;202;48.764;9.172;2023-01-29T08:45:24;3.10;43.90
431;DHT22;202;48.764;9.172;2023-01-29T08:47:51;3.20;43.90
431;DHT22;202;48.764;9.172;2023-01-29T08:50:18;3.20;43.80
431;DHT22;202;48.764;9.172;2023-01-29T08:52:45;3.30;43.80
431;DHT22;202;48.764;9.172;2023-01-29T08:55:12;3.40;44.00
431;DHT22;202;48.764;9.172;2023-01-29T08:57:41;3.40;43.90
431;DHT22;202;48.764;9.172;2023-01-29T09:00:09;3.40;43.90
431;DHT22;202;48.764;9.172;2023-01-29T09:02:36;3.40;43.90
431;DHT22;202;48.764;9.172;2023-01-29T09:05:03;3.40;42.60
431;DHT22;202;48.764;9.172;2023-01-29T09:07:30;3.20;42.50
431;DHT22;202;48.764;9.172;2023-01-29T09:09:57;3.30;43.00
431;DHT22;202;48.764;9.172;2023-01-29T09:12:25;3.30;42.90
431;DHT22;202;48.764;9.172;2023-01-29T09:14:53;3.40;43.10
431;DHT22;202;48.764;9.172;2023-01-29T09:17:20;3.40;43.30
431;DHT22;202;48.764;9.172;2023-01-29T09:19:47;3.30;42.50
431;DHT22;202;48.764;9.172;2023-01-29T09:22:15;3.10;43.40
431;DHT22;202;48.764;9.172;2023-01-29T09:24:42;3.20;43.60
431;DHT22;202;48.764;9.172;2023-01-29T09:27:09;3.30;44.50
431;DHT22;202;48.764;9.172;2023-01-29T09:29:36;3.20;43.60
431;DHT22;202;48.764;9.172;2023-01-29T09:32:09;3.20;42.80
431;DHT22;202;48.764;9.172;2023-01-29T09:34:38;3.20;43.10
431;DHT22;202;48.764;9.172;2023-01-29T09:41:19;3.20;42.10
431;DHT22;202;48.764;9.172;2023-01-29T09:43:54;3.60;69.50
431;DHT22;202;48.764;9.172;2023-01-29T09:46:26;3.30;70.20
431;DHT22;202;48.764;9.172;2023-01-29T09:49:00;3.70;60.80
431;DHT22;202;48.764;9.172;2023-01-29T09:51:33;3.60;60.80
431;DHT22;202;48.764;9.172;2023-01-29T09:54:12;3.30;63.20
431;DHT22;202;48.764;9.172;2023-01-29T09:56:42;3.20;70.00
431;DHT22;202;48.764;9.172;2023-01-29T09:59:12;3.30;44.10
431;DHT22;202;48.764;9.172;2023-01-29T10:01:49;3.10;47.60
431;DHT22;202;48.764;9.172;2023-01-29T10:10:24;3.50;42.30
431;DHT22;202;48.764;9.172;2023-01-29T10:12:59;3.50;43.30
431;DHT22;202;48.764;9.172;2023-01-29T10:15:44;3.60;41.40
431;DHT22;202;48.764;9.172;2023-01-29T10:24:34;4.10;41.60
431;DHT22;202;48.764;9.172;2023-01-29T10:27:10;4.10;39.70
431;DHT22;202;48.764;9.172;2023-01-29T10:29:40;3.90;40.60
431;DHT22;202;48.764;9.172;2023-01-29T10:32:14;3.50;51.60
431;DHT22;202;48.764;9.172;2023-01-29T10:34:44;3.60;46.90
431;DHT22;202;48.764;9.172;2023-01-29T10:37:15;3.60;41.70
431;DHT22;202;48.764;9.172;2023-01-29T10:39:43;3.60;41.80
431;DHT22;202;48.764;9.172;2023-01-29T10:42:25;3.60;41.20
431;DHT22;202;48.764;9.172;2023-01-29T10:45:14;3.60;41.90
431;DHT22;202;48.764;9.172;2023-01-29T10:48:08;3.60;42.00
431;DHT22;202;48.764;9.172;2023-01-29T10:50:46;3.60;41.30
431;DHT22;202;48.764;9.172;2023-01-29T10:53:30;3.60;41.40
431;DHT22;202;48.764;9.172;2023-01-29T10:56:11;3.70;41.00
431;DHT22;202;48.764;9.172;2023-01-29T10:58:46;4.20;46.00
431;DHT22;202;48.764;9.172;2023-01-29T11:01:16;3.70;52.10
431;DHT22;202;48.764;9.172;2023-01-29T11:03:43;3.70;40.90
431;DHT22;202;48.764;9.172;2023-01-29T11:06:14;3.50;41.40
431;DHT22;202;48.764;9.172;2023-01-29T11:08:47;3.50;42.00
431;DHT22;202;48.764;9.172;2023-01-29T11:11:15;3.70;42.50
431;DHT22;202;48.764;9.172;2023-01-29T11:13:44;3.80;40.50
431;DHT22;202;48.764;9.172;2023-01-29T11:16:14;3.90;41.00
431;DHT22;202;48.764;9.172;2023-01-29T11:18:56;4.00;41.50
431;DHT22;202;48.764;9.172;2023-01-29T11:21:25;4.10;41.00
431;DHT22;202;48.764;9.172;2023-01-29T11:24:05;4.20;40.70
431;DHT22;202;48.764;9.172;2023-01-29T11:26:36;4.30;40.50
431;DHT22;202;48.764;9.172;2023-01-29T11:29:03;4.30;39.80
431;DHT22;202;48.764;9.172;2023-01-29T11:31:35;4.20;40.30
431;DHT22;202;48.764;9.172;2023-01-29T11:34:15;4.40;39.90
431;DHT22;202;48.764;9.172;2023-01-29T11:36:43;4.50;40.00
431;DHT22;202;48.764;9.172;2023-01-29T11:39:15;4.50;40.00
431;DHT22;202;48.764;9.172;2023-01-29T11:41:44;4.60;40.10
431;DHT22;202;48.764;9.172;2023-01-29T11:44:17;4.60;40.00
431;DHT22;202;48.764;9.172;2023-01-29T11:46:45;4.60;39.10
431;DHT22;202;48.764;9.172;2023-01-29T11:49:25;4.40;39.00
431;DHT22;202;48.764;9.172;2023-01-29T11:51:56;4.40;39.50
431;DHT22;202;48.764;9.172;2023-01-29T11:54:30;4.20;39.70
431;DHT22;202;48.764;9.172;2023-01-29T11:56:58;4.20;39.80
431;DHT22;202;48.764;9.172;2023-01-29T11:59:33;4.20;39.70
431;DHT22;202;48.764;9.172;2023-01-29T12:02:10;4.40;39.90
431;DHT22;202;48.764;9.172;2023-01-29T12:04:40;4.50;40.00
431;DHT22;202;48.764;9.172;2023-01-29T12:07:12;4.70;39.60
431;DHT22;202;48.764;9.172;2023-01-29T12:09:40;4.70;39.10
431;DHT22;202;48.764;9.172;2023-01-29T12:12:29;4.70;38.00
431;DHT22;202;48.764;9.172;2023-01-29T12:15:15;4.70;38.50
431;DHT22;202;48.764;9.172;2023-01-29T12:17:47;4.50;38.80
431;DHT22;202;48.764;9.172;2023-01-29T12:20:22;4.60;39.30
431;DHT22;202;48.764;9.172;2023-01-29T12:22:57;4.60;39.20
431;DHT22;202;48.764;9.172;2023-01-29T12:25:37;4.10;49.60
431;DHT22;202;48.764;9.172;2023-01-29T12:28:07;4.50;39.50
431;DHT22;202;48.764;9.172;2023-01-29T12:30:46;4.40;39.60
431;DHT22;202;48.764;9.172;2023-01-29T12:33:19;4.40;40.00
431;DHT22;202;48.764;9.172;2023-01-29T12:35:53;4.50;40.00
431;DHT22;202;48.764;9.172;2023-01-29T12:38:23;4.50;38.90
431;DHT22;202;48.764;9.172;2023-01-29T12:40:52;4.30;39.30
431;DHT22;202;48.764;9.172;2023-01-29T12:43:23;4.40;39.90
431;DHT22;202;48.764;9.172;2023-01-29T12:45:54;4.50;40.00
431;DHT22;202;48.764;9.172;2023-01-29T12:48:25;4.50;40.00
431;DHT22;202;48.764;9.172;2023-01-29T12:54:30;4.40;40.00
431;DHT22;202;48.764;9.172;2023-01-29T12:56:59;4.30;39.70
431;DHT22;202;48.764;9.172;2023-01-29T12:59:31;4.10;40.20
431;DHT22;202;48.764;9.172;2023-01-29T13:02:06;3.90;40.50
431;DHT22;202;48.764;9.172;2023-01-29T13:04:43;4.00;41.20
431;DHT22;202;48.764;9.172;2023-01-29T13:07:38;4.20;55.70
431;DHT22;202;48.764;9.172;2023-01-29T13:17:25;4.30;55.90
431;DHT22;202;48.764;9.172;2023-01-29T13:20:03;4.30;40.20
431;DHT22;202;48.764;9.172;2023-01-29T13:23:18;4.30;56.10
431;DHT22;202;48.764;9.172;2023-01-29T13:26:02;4.40;46.70
431;DHT22;202;48.764;9.172;2023-01-29T13:28:52;4.30;57.00
431;DHT22;202;48.764;9.172;2023-01-29T13:34:54;4.50;55.80
431;DHT22;202;48.764;9.172;2023-01-29T13:40:53;4.70;61.60
431;DHT22;202;48.764;9.172;2023-01-29T13:44:00;4.60;46.40
431;DHT22;202;48.764;9.172;2023-01-29T13:54:12;5.20;53.20
431;DHT22;202;48.764;9.172;2023-01-29T14:01:08;5.00;41.00
431;DHT22;202;48.764;9.172;2023-01-29T14:08:35;4.90;39.40
431;DHT22;202;48.764;9.172;2023-01-29T14:11:42;4.90;58.90
431;DHT22;202;48.764;9.172;2023-01-29T14:21:00;5.00;48.90
431;DHT22;202;48.764;9.172;2023-01-29T14:24:07;4.90;51.00
431;DHT22;202;48.764;9.172;2023-01-29T14:27:18;4.90;56.10
431;DHT22;202;48.764;9.172;2023-01-29T14:29:45;4.80;58.40
431;DHT22;202;48.764;9.172;2023-01-29T14:32:18;4.80;38.00
431;DHT22;202;48.764;9.172;2023-01-29T14:34:47;4.80;38.00
431;DHT22;202;48.764;9.172;2023-01-29T14:37:20;4.90;38.00
431;DHT22;202;48.764;9.172;2023-01-29T14:39:52;4.90;38.10
431;DHT22;202;48.764;9.172;2023-01-29T14:53:39;4.80;39.60
431;DHT22;202;48.764;9.172;2023-01-29T15:00:36;4.80;39.40
431;DHT22;202;48.764;9.172;2023-01-29T15:07:32;4.70;39.60
431;DHT22;202;48.764;9.172;2023-01-29T15:11:03;4.70;40.10
431;DHT22;202;48.764;9.172;2023-01-29T15:14:03;4.70;39.80
431;DHT22;202;48.764;9.172;2023-01-29T15:29:38;4.60;40.10
431;DHT22;202;48.764;9.172;2023-01-29T15:32:42;4.60;40.10
431;DHT22;202;48.764;9.172;2023-01-29T15:39:41;4.60;40.20
431;DHT22;202;48.764;9.172;2023-01-29T15:47:43;4.50;40.50
431;DHT22;202;48.764;9.172;2023-01-29T15:49:53;4.50;40.10
431;DHT22;202;48.764;9.172;2023-01-29T15:53:04;4.50;41.00
431;DHT22;202;48.764;9.172;2023-01-29T16:02:52;4.50;40.70
431;DHT22;202;48.764;9.172;2023-01-29T16:15:56;4.50;41.30
431;DHT22;202;48.764;9.172;2023-01-29T16:22:17;4.50;41.50
431;DHT22;202;48.764;9.172;2023-01-29T16:25:17;4.40;42.50
431;DHT22;202;48.764;9.172;2023-01-29T16:28:22;4.50;42.60
431;DHT22;202;48.764;9.172;2023-01-29T16:34:54;4.40;42.70
431;DHT22;202;48.764;9.172;2023-01-29T16:38:00;4.40;43.00
431;DHT22;202;48.764;9.172;2023-01-29T16:41:17;4.40;43.30
431;DHT22;202;48.764;9.172;2023-01-29T16:44:51;4.40;43.30
431;DHT22;202;48.764;9.172;2023-01-29T16:47:58;4.30;43.10
431;DHT22;202;48.764;9.172;2023-01-29T16:53:58;4.20;43.40
431;DHT22;202;48.764;9.172;2023-01-29T16:57:10;4.10;43.60
431;DHT22;202;48.764;9.172;2023-01-29T17:11:05;4.00;44.40
431;DHT22;202;48.764;9.172;2023-01-29T17:13:43;4.00;44.40
431;DHT22;202;48.764;9.172;2023-01-29T17:16:48;4.00;44.50
431;DHT22;202;48.764;9.172;2023-01-29T17:22:45;4.00;44.40
431;DHT22;202;48.764;9.172;2023-01-29T17:25:52;3.70;44.30
431;DHT22;202;48.764;9.172;2023-01-29T17:31:26;3.90;44.90
431;DHT22;202;48.764;9.172;2023-01-29T17:37:25;3.80;44.80
431;DHT22;202;48.764;9.172;2023-01-29T17:47:00;3.60;45.40
431;DHT22;202;48.764;9.172;2023-01-29T17:50:15;3.50;46.70
431;DHT22;202;48.764;9.172;2023-01-29T17:53:03;3.40;46.20
431;DHT22;202;48.764;9.172;2023-01-29T17:56:08;3.30;46.30
431;DHT22;202;48.764;9.172;2023-01-29T17:58:59;3.20;46.50
431;DHT22;202;48.764;9.172;2023-01-29T18:04:41;3.10;47.60
431;DHT22;202;48.764;9.172;2023-01-29T18:08:09;3.00;48.30
431;DHT22;202;48.764;9.172;2023-01-29T18:17:05;2.90;48.30
431;DHT22;202;48.764;9.172;2023-01-29T18:23:45;2.90;48.30
431;DHT22;202;48.764;9.172;2023-01-29T18:26:43;2.80;48.20
431;DHT22;202;48.764;9.172;2023-01-29T18:31:45;2.70;49.20
431;DHT22;202;48.764;9.172;2023-01-29T18:33:02;2.80;48.90
431;DHT22;202;48.764;9.172;2023-01-29T18:36:19;2.90;48.80
431;DHT22;202;48.764;9.172;2023-01-29T18:43:00;2.80;49.20
431;DHT22;202;48.764;9.172;2023-01-29T18:45:59;2.70;49.80
431;DHT22;202;48.764;9.172;2023-01-29T18:52:14;2.80;49.20
431;DHT22;202;48.764;9.172;2023-01-29T18:55:24;2.90;49.50
431;DHT22;202;48.764;9.172;2023-01-29T18:58:39;2.90;49.00
431;DHT22;202;48.764;9.172;2023-01-29T19:01:30;3.00;48.40
431;DHT22;202;48.764;9.172;2023-01-29T19:04:51;3.10;48.50
431;DHT22;202;48.764;9.172;2023-01-29T19:07:53;3.20;48.60
431;DHT22;202;48.764;9.172;2023-01-29T19:14:17;3.20;48.60
431;DHT22;202;48.764;9.172;2023-01-29T19:17:37;3.20;48.60
431;DHT22;202;48.764;9.172;2023-01-29T19:22:08;3.20;48.60
431;DHT22;202;48.764;9.172;2023-01-29T19:37:40;3.20;48.60
431;DHT22;202;48.764;9.172;2023-01-29T21:08:30;2.00;52.20
431;DHT22;202;48.764;9.172;2023-01-29T21:11:15;2.20;52.00
431;DHT22;202;48.764;9.172;2023-01-29T21:14:03;2.20;52.00
431;DHT22;202;48.764;9.172;2023-01-29T21:19:44;2.30;51.50
431;DHT22;202;48.764;9.172;2023-01-29T21:26:15;2.30;51.50
431;DHT22;202;48.764;9.172;2023-01-29T21:29:35;2.30;51.60
431;DHT22;202;48.764;9.172;2023-01-29T21:32:24;2.20;51.30
431;DHT22;202;48.764;9.172;2023-01-29T22:01:29;2.20;50.80
431;DHT22;202;48.764;9.172;2023-01-29T22:04:31;2.30;50.40
431;DHT22;202;48.764;9.172;2023-01-29T22:07:16;2.30;50.80
431;DHT22;202;48.764;9.172;2023-01-29T22:10:01;2.40;50.90
431;DHT22;202;48.764;9.172;2023-01-29T22:12:43;2.40;50.50
431;DHT22;202;48.764;9.172;2023-01-29T22:15:17;2.40;50.00
431;DHT22;202;48.764;9.172;2023-01-29T22:18:07;2.40;50.00
431;DHT22;202;48.764;9.172;2023-01-29T22:21:04;2.40;49.90
431;DHT22;202;48.764;9.172;2023-01-29T22:31:14;2.20;50.90
431;DHT22;202;48.764;9.172;2023-01-29T22:33:50;2.00;51.30
431;DHT22;202;48.764;9.172;2023-01-29T22:36:49;1.90;52.20
431;DHT22;202;48.764;9.172;2023-01-29T22:42:17;2.00;51.90
431;DHT22;202;48.764;9.172;2023-01-29T22:42:54;2.00;51.30
431;DHT22;202;48.764;9.172;2023-01-29T22:48:46;2.20;51.20
431;DHT22;202;48.764;9.172;2023-01-29T22:51:19;2.30;50.70
431;DHT22;202;48.764;9.172;2023-01-29T23:04:19;1.90;51.70
431;DHT22;202;48.764;9.172;2023-01-29T23:08:42;1.70;52.00
431;DHT22;202;48.764;9.172;2023-01-29T23:14:08;1.50;53.30
431;DHT22;202;48.764;9.172;2023-01-29T23:16:49;1.30;53.10
431;DHT22;202;48.764;9.172;2023-01-29T23:19:18;1.20;54.20
431;DHT22;202;48.764;9.172;2023-01-29T23:21:52;1.20;54.40
431;DHT22;202;48.764;9.172;2023-01-29T23:24:35;1.20;55.10
431;DHT22;202;48.764;9.172;2023-01-29T23:27:10;1.30;54.10
431;DHT22;202;48.764;9.172;2023-01-29T23:29:41;1.50;54.10
431;DHT22;202;48.764;9.172;2023-01-29T23:32:09;1.50;53.70
431;DHT22;202;48.764;9.172;2023-01-29T23:34:38;1.40;53.20
431;DHT22;202;48.764;9.172;2023-01-29T23:37:08;1.40;53.00
431;DHT22;202;48.764;9.172;2023-01-29T23:39:45;1.40;53.10
431;DHT22;202;48.764;9.172;2023-01-29T23:42:38;1.40;53.90
431;DHT22;202;48.764;9.172;2023-01-29T23:46:03;1.40;53.40
431;DHT22;202;48.764;9.172;2023-01-29T23:49:13;1.40;54.00
431;DHT22;202;48.764;9.172;2023-01-29T23:52:04;1.40;53.70
431;DHT22;202;48.764;9.172;2023-01-29T23:54:32;1.50;53.20
431;DHT22;202;48.764;9.172;2023-01-29T23:56:59;1.40;53.30
431;DHT22;202;48.764;9.172;2023-01-29T23:59:26;1.50;53.40
